createdAt,value
2023-04-28T00:00:45.405Z,117.58
2023-04-28T00:01:45.482Z,119.29
2023-04-28T00:02:45.587Z,119.53
2023-04-28T00:03:45.603Z,120.43
2023-04-28T00:04:45.774Z,125.95
2023-04-28T00:05:45.547Z,128.38
2023-04-28T00:06:45.584Z,130.41
2023-04-28T00:07:45.614Z,132.43
2023-04-28T00:08:45.615Z,125.96
2023-04-28T00:09:45.674Z,130.37
2023-04-28T00:10:45.663Z,134.18
2023-04-28T00:11:45.670Z,139.55
2023-04-28T00:12:45.711Z,144.98
2023-04-28T00:13:45.751Z,141.82
2023-04-28T00:14:45.771Z,140.60
2023-04-28T00:15:45.720Z,141.32
2023-04-28T00:16:45.856Z,142.49
2023-04-28T00:17:45.827Z,139.07
2023-04-28T00:18:45.787Z,132.73
2023-04-28T00:19:45.791Z,130.72
2023-04-28T00:20:45.798Z,129.23
2023-04-28T00:21:45.847Z,129.13
2023-04-28T00:22:45.856Z,127.08
2023-04-28T00:23:46.020Z,124.35
2023-04-28T00:24:45.940Z,124.02
2023-04-28T00:25:45.937Z,116.58
2023-04-28T00:26:45.947Z,112.62
2023-04-28T00:27:46.000Z,107.75
2023-04-28T00:28:45.996Z,108.30
2023-04-28T00:29:46.017Z,108.76
2023-04-28T00:30:46.079Z,114.82
2023-04-28T00:31:46.101Z,112.62
2023-04-28T00:32:46.132Z,106.56
2023-04-28T00:33:46.148Z,111.37
2023-04-28T00:34:46.160Z,115.09
2023-04-28T00:35:46.142Z,109.08
2023-04-28T00:36:46.161Z,114.86
2023-04-28T00:37:46.231Z,115.25
2023-04-28T00:38:46.239Z,115.28
2023-04-28T00:39:46.244Z,118.53
2023-04-28T00:40:46.305Z,119.60
2023-04-28T00:41:46.260Z,122.88
2023-04-28T00:42:46.311Z,120.71
2023-04-28T00:43:46.384Z,122.39
2023-04-28T00:44:46.373Z,119.51
2023-04-28T00:45:46.504Z,122.17
2023-04-28T00:46:46.446Z,126.41
2023-04-28T00:47:46.585Z,125.57
2023-04-28T00:48:46.514Z,126.86
2023-04-28T00:49:46.515Z,123.58
2023-04-28T00:50:46.558Z,122.06
2023-04-28T00:51:46.567Z,120.20
2023-04-28T00:52:46.592Z,117.03
2023-04-28T00:53:46.642Z,124.68
2023-04-28T00:54:46.595Z,123.55
2023-04-28T00:55:46.653Z,123.84
2023-04-28T00:56:46.688Z,122.09
2023-04-28T00:57:46.737Z,119.10
2023-04-28T00:58:46.793Z,119.02
2023-04-28T00:59:46.791Z,120.21
2023-04-28T01:00:46.940Z,127.00
2023-04-28T01:01:47.117Z,128.04
2023-04-28T01:02:47.059Z,128.98
2023-04-28T01:03:47.186Z,126.12
2023-04-28T01:04:47.127Z,128.08
2023-04-28T01:05:47.037Z,129.30
2023-04-28T01:06:47.189Z,124.66
2023-04-28T01:07:47.106Z,127.32
2023-04-28T01:08:47.173Z,125.29
2023-04-28T01:09:47.145Z,125.78
2023-04-28T01:10:47.214Z,129.49
2023-04-28T01:11:47.221Z,134.56
2023-04-28T01:12:47.232Z,133.01
2023-04-28T01:13:47.275Z,137.69
2023-04-28T01:14:47.302Z,140.38
2023-04-28T01:15:47.311Z,142.52
2023-04-28T01:16:47.340Z,140.27
2023-04-28T01:17:47.389Z,140.71
2023-04-28T01:18:47.359Z,139.29
2023-04-28T01:19:47.384Z,143.75
2023-04-28T01:20:47.438Z,143.98
2023-04-28T01:21:47.452Z,146.71
2023-04-28T01:22:47.543Z,150.24
2023-04-28T01:23:47.506Z,154.62
2023-04-28T01:24:47.525Z,156.43
2023-04-28T01:25:47.593Z,156.81
2023-04-28T01:26:47.545Z,155.29
2023-04-28T01:27:47.595Z,157.60
2023-04-28T01:28:47.599Z,155.57
2023-04-28T01:29:47.629Z,153.90
2023-04-28T01:30:47.662Z,153.04
2023-04-28T01:31:47.684Z,155.33
2023-04-28T01:32:47.718Z,152.87
2023-04-28T01:33:47.733Z,153.04
2023-04-28T01:34:47.784Z,155.13
2023-04-28T01:35:47.820Z,151.98
2023-04-28T01:36:47.873Z,147.01
2023-04-28T01:37:47.830Z,147.16
2023-04-28T01:38:47.887Z,148.82
2023-04-28T01:39:47.913Z,152.29
2023-04-28T01:40:47.928Z,152.38
2023-04-28T01:41:47.944Z,155.58
2023-04-28T01:42:48.005Z,159.69
2023-04-28T01:43:48.015Z,161.34
2023-04-28T01:44:48.030Z,162.85
2023-04-28T01:45:48.085Z,166.36
2023-04-28T01:46:48.081Z,166.24
2023-04-28T01:47:48.139Z,168.87
2023-04-28T01:48:48.159Z,166.44
2023-04-28T01:49:48.166Z,163.20
2023-04-28T01:50:48.163Z,165.74
2023-04-28T01:51:48.159Z,164.08
2023-04-28T01:52:48.213Z,162.43
2023-04-28T01:53:48.234Z,163.18
2023-04-28T01:54:48.295Z,163.88
2023-04-28T01:55:48.305Z,164.66
2023-04-28T01:56:48.307Z,166.58
2023-04-28T01:57:48.355Z,163.68
2023-04-28T01:58:48.356Z,163.10
2023-04-28T01:59:48.358Z,157.88
2023-04-28T02:00:48.436Z,159.85
2023-04-28T02:01:48.486Z,158.66
2023-04-28T02:02:48.535Z,155.97
2023-04-28T02:03:48.518Z,153.98
2023-04-28T02:04:48.550Z,152.85
2023-04-28T02:05:48.516Z,153.84
2023-04-28T02:06:48.515Z,153.50
2023-04-28T02:07:48.535Z,151.67
2023-04-28T02:08:48.595Z,150.32
2023-04-28T02:09:48.600Z,147.91
2023-04-28T02:10:48.650Z,150.04
2023-04-28T02:11:48.670Z,146.33
2023-04-28T02:12:48.696Z,150.42
2023-04-28T02:13:48.771Z,148.43
2023-04-28T02:14:48.840Z,149.07
2023-04-28T02:15:48.855Z,147.03
2023-04-28T02:16:48.879Z,145.84
2023-04-28T02:17:49.035Z,147.35
2023-04-28T02:18:48.987Z,142.72
2023-04-28T02:19:48.981Z,137.79
2023-04-28T02:20:49.033Z,135.11
2023-04-28T02:21:49.036Z,128.35
2023-04-28T02:22:49.097Z,129.27
2023-04-28T02:23:49.098Z,127.99
2023-04-28T02:24:49.106Z,126.63
2023-04-28T02:25:49.158Z,122.57
2023-04-28T02:26:49.179Z,116.78
2023-04-28T02:27:49.309Z,114.49
2023-04-28T02:28:49.307Z,119.31
2023-04-28T02:29:49.311Z,113.90
2023-04-28T02:30:49.301Z,114.78
2023-04-28T02:31:49.454Z,122.19
2023-04-28T02:32:49.371Z,118.36
2023-04-28T02:33:49.373Z,115.18
2023-04-28T02:34:49.376Z,119.72
2023-04-28T02:35:49.376Z,116.47
2023-04-28T02:36:49.429Z,112.77
2023-04-28T02:37:49.450Z,116.54
2023-04-28T02:38:49.514Z,116.71
2023-04-28T02:39:49.557Z,116.60
2023-04-28T02:40:49.598Z,118.30
2023-04-28T02:41:49.670Z,115.49
2023-04-28T02:42:49.761Z,113.45
2023-04-28T02:43:49.799Z,113.78
2023-04-28T02:44:49.803Z,117.27
2023-04-28T02:45:49.896Z,119.37
2023-04-28T02:46:50.070Z,121.24
2023-04-28T02:47:50.018Z,121.80
2023-04-28T02:48:50.097Z,118.08
2023-04-28T02:49:50.132Z,116.69
2023-04-28T02:50:50.210Z,117.03
2023-04-28T02:51:50.255Z,117.04
2023-04-28T02:52:50.259Z,112.78
2023-04-28T02:53:50.323Z,117.78
2023-04-28T02:54:50.380Z,117.28
2023-04-28T02:55:50.404Z,117.88
2023-04-28T02:56:50.507Z,121.01
2023-04-28T02:57:50.599Z,118.72
2023-04-28T02:58:50.562Z,122.69
2023-04-28T02:59:50.584Z,118.40
2023-04-28T03:00:50.645Z,114.88
2023-04-28T03:01:50.588Z,115.76
2023-04-28T03:02:50.695Z,112.83
2023-04-28T03:03:50.780Z,107.60
2023-04-28T03:04:50.672Z,105.43
2023-04-28T03:05:50.660Z,103.76
2023-04-28T03:06:50.682Z,107.81
2023-04-28T03:07:50.683Z,107.70
2023-04-28T03:08:50.684Z,107.78
2023-04-28T03:09:50.695Z,106.63
2023-04-28T03:10:50.761Z,107.49
2023-04-28T03:11:50.729Z,100.10
2023-04-28T03:12:50.773Z,99.10
2023-04-28T03:13:50.781Z,93.67
2023-04-28T03:14:50.780Z,95.85
2023-04-28T03:15:50.874Z,96.44
2023-04-28T03:16:50.860Z,98.00
2023-04-28T03:17:50.891Z,97.50
2023-04-28T03:18:50.854Z,96.28
2023-04-28T03:19:50.875Z,94.85
2023-04-28T03:20:50.883Z,94.71
2023-04-28T03:21:50.885Z,91.38
2023-04-28T03:22:50.943Z,93.81
2023-04-28T03:23:50.946Z,96.07
2023-04-28T03:24:50.904Z,97.91
2023-04-28T03:25:50.967Z,99.94
2023-04-28T03:26:50.914Z,102.22
2023-04-28T03:27:50.927Z,106.58
2023-04-28T03:28:50.937Z,109.01
2023-04-28T03:29:50.989Z,111.61
2023-04-28T03:30:51.048Z,118.63
2023-04-28T03:31:51.182Z,124.73
2023-04-28T03:32:51.093Z,129.88
2023-04-28T03:33:51.111Z,133.03
2023-04-28T03:34:51.165Z,133.72
2023-04-28T03:35:51.181Z,133.57
2023-04-28T03:36:51.242Z,126.33
2023-04-28T03:37:51.290Z,126.19
2023-04-28T03:38:51.350Z,125.95
2023-04-28T03:39:51.381Z,124.14
2023-04-28T03:40:51.397Z,121.65
2023-04-28T03:41:51.414Z,124.00
2023-04-28T03:42:51.430Z,126.69
2023-04-28T03:43:51.445Z,127.88
2023-04-28T03:44:51.504Z,126.54
2023-04-28T03:45:51.535Z,132.25
2023-04-28T03:46:51.510Z,132.74
2023-04-28T03:47:51.610Z,131.03
2023-04-28T03:48:51.564Z,130.94
2023-04-28T03:49:51.640Z,131.15
2023-04-28T03:50:51.648Z,133.25
2023-04-28T03:51:51.659Z,130.09
2023-04-28T03:52:51.664Z,131.20
2023-04-28T03:53:51.699Z,135.74
2023-04-28T03:54:51.698Z,137.51
2023-04-28T03:55:51.702Z,135.05
2023-04-28T03:56:51.743Z,139.39
2023-04-28T03:57:51.780Z,141.84
2023-04-28T03:58:51.802Z,147.02
2023-04-28T03:59:51.836Z,148.37
2023-04-28T04:00:51.924Z,150.14
2023-04-28T04:01:51.934Z,152.03
2023-04-28T04:02:52.041Z,153.27
2023-04-28T04:03:52.225Z,154.24
2023-04-28T04:04:52.345Z,159.05
2023-04-28T04:05:52.457Z,158.59
2023-04-28T04:06:52.202Z,159.31
2023-04-28T04:07:52.240Z,160.90
2023-04-28T04:08:52.242Z,162.68
2023-04-28T04:09:52.293Z,159.58
2023-04-28T04:10:52.279Z,159.58
2023-04-28T04:11:52.311Z,161.35
2023-04-28T04:12:52.236Z,162.32
2023-04-28T04:13:52.273Z,162.39
2023-04-28T04:14:52.332Z,162.22
2023-04-28T04:15:52.386Z,163.84
2023-04-28T04:16:52.370Z,167.70
2023-04-28T04:17:52.474Z,167.30
2023-04-28T04:18:52.497Z,169.51
2023-04-28T04:19:52.552Z,171.08
2023-04-28T04:20:52.597Z,175.00
2023-04-28T04:21:52.720Z,175.19
2023-04-28T04:22:52.786Z,176.36
2023-04-28T04:23:52.795Z,178.22
2023-04-28T04:24:52.865Z,179.10
2023-04-28T04:25:52.932Z,179.93
2023-04-28T04:26:53.037Z,180.39
2023-04-28T04:27:53.077Z,180.65
2023-04-28T04:28:53.138Z,181.23
2023-04-28T04:29:53.181Z,184.77
2023-04-28T04:30:53.276Z,189.18
2023-04-28T04:31:53.292Z,188.04
2023-04-28T04:32:53.396Z,186.11
2023-04-28T04:33:53.442Z,185.81
2023-04-28T04:34:53.481Z,188.47
2023-04-28T04:35:53.508Z,188.86
2023-04-28T04:36:53.522Z,188.72
2023-04-28T04:37:53.593Z,188.70
2023-04-28T04:38:54.669Z,188.43
2023-04-28T04:39:53.650Z,190.32
2023-04-28T04:40:53.724Z,192.71
2023-04-28T04:41:53.884Z,194.09
2023-04-28T04:42:53.842Z,196.38
2023-04-28T04:43:53.849Z,194.39
2023-04-28T04:44:53.944Z,195.36
2023-04-28T04:45:53.968Z,195.40
2023-04-28T04:46:54.132Z,194.07
2023-04-28T04:47:54.119Z,192.63
2023-04-28T04:48:54.127Z,193.70
2023-04-28T04:49:54.184Z,194.36
2023-04-28T04:50:54.254Z,193.69
2023-04-28T04:51:54.237Z,194.07
2023-04-28T04:52:54.239Z,195.46
2023-04-28T04:53:54.250Z,196.55
2023-04-28T04:54:54.344Z,197.86
2023-04-28T04:55:54.499Z,199.88
2023-04-28T04:56:54.447Z,201.58
2023-04-28T04:57:54.486Z,195.56
2023-04-28T04:58:54.559Z,198.68
2023-04-28T04:59:54.564Z,203.03
2023-04-28T05:00:54.629Z,205.48
2023-04-28T05:01:54.734Z,206.49
2023-04-28T05:02:54.818Z,208.24
2023-04-28T05:03:54.887Z,209.87
2023-04-28T05:05:01.848Z,209.78
2023-04-28T05:05:55.734Z,209.99
2023-04-28T05:06:54.709Z,210.44
2023-04-28T05:07:54.729Z,210.91
2023-04-28T05:08:54.657Z,210.72
2023-04-28T05:09:54.673Z,215.37
2023-04-28T05:10:54.668Z,215.39
2023-04-28T05:11:54.653Z,216.27
2023-04-28T05:12:54.659Z,218.03
2023-04-28T05:13:54.625Z,219.36
2023-04-28T05:14:54.639Z,224.08
2023-04-28T05:15:54.616Z,225.22
2023-04-28T05:16:54.656Z,227.06
2023-04-28T05:17:54.612Z,227.53
2023-04-28T05:18:54.638Z,228.98
2023-04-28T05:19:54.648Z,229.15
2023-04-28T05:20:54.619Z,227.07
2023-04-28T05:21:54.650Z,225.55
2023-04-28T05:22:54.566Z,227.98
2023-04-28T05:23:54.635Z,221.62
2023-04-28T05:24:54.634Z,225.48
2023-04-28T05:25:54.688Z,227.81
2023-04-28T05:26:54.672Z,229.06
2023-04-28T05:27:54.702Z,229.61
2023-04-28T05:28:54.770Z,228.71
2023-04-28T05:29:54.720Z,228.00
2023-04-28T05:30:54.790Z,227.18
2023-04-28T05:31:54.916Z,229.86
2023-04-28T05:32:54.890Z,243.73
2023-04-28T05:33:54.846Z,243.33
2023-04-28T05:34:54.852Z,247.53
2023-04-28T05:35:54.872Z,248.86
2023-04-28T05:36:54.856Z,250.00
2023-04-28T05:37:54.856Z,250.10
2023-04-28T05:38:54.865Z,248.45
2023-04-28T05:39:54.869Z,250.00
2023-04-28T05:40:54.868Z,250.51
2023-04-28T05:41:54.966Z,249.23
2023-04-28T05:42:54.972Z,250.00
2023-04-28T05:43:54.955Z,248.19
2023-04-28T05:44:54.983Z,249.30
2023-04-28T05:45:55.093Z,249.65
2023-04-28T05:46:55.066Z,248.65
2023-04-28T05:47:55.081Z,249.33
2023-04-28T05:48:55.076Z,248.02
2023-04-28T05:49:55.109Z,249.95
2023-04-28T05:50:55.113Z,248.98
2023-04-28T05:51:55.169Z,249.14
2023-04-28T05:52:55.162Z,250.00
2023-04-28T05:53:55.176Z,248.37
2023-04-28T05:54:55.204Z,248.86
2023-04-28T05:55:55.292Z,249.03
2023-04-28T05:56:55.219Z,248.39
2023-04-28T05:57:55.274Z,250.00
2023-04-28T05:58:55.278Z,249.56
2023-04-28T05:59:55.294Z,249.80
2023-04-28T06:00:55.344Z,249.13
2023-04-28T06:01:55.343Z,248.52
2023-04-28T06:02:55.435Z,250.57
2023-04-28T06:03:55.522Z,249.84
2023-04-28T06:04:55.498Z,249.40
2023-04-28T06:05:55.500Z,248.68
2023-04-28T06:06:55.386Z,248.87
2023-04-28T06:07:55.375Z,249.90
2023-04-28T06:08:55.396Z,249.62
2023-04-28T06:09:55.423Z,249.63
2023-04-28T06:10:55.418Z,248.70
2023-04-28T06:11:55.474Z,248.64
2023-04-28T06:12:55.439Z,250.00
2023-04-28T06:13:55.480Z,249.81
2023-04-28T06:14:55.502Z,248.97
2023-04-28T06:15:55.522Z,249.16
2023-04-28T06:16:55.459Z,249.90
2023-04-28T06:17:55.544Z,248.58
2023-04-28T06:18:55.526Z,250.00
2023-04-28T06:19:55.631Z,250.00
2023-04-28T06:20:55.684Z,248.89
2023-04-28T06:21:55.737Z,249.70
2023-04-28T06:22:55.797Z,249.26
2023-04-28T06:23:55.831Z,250.00
2023-04-28T06:24:55.915Z,249.87
2023-04-28T06:25:55.976Z,250.21
2023-04-28T06:26:56.013Z,250.58
2023-04-28T06:27:56.009Z,252.68
2023-04-28T06:28:56.058Z,250.46
2023-04-28T06:29:56.071Z,250.00
2023-04-28T06:30:56.096Z,249.77
2023-04-28T06:31:56.121Z,249.60
2023-04-28T06:32:56.102Z,248.91
2023-04-28T06:33:56.136Z,250.00
2023-04-28T06:34:57.869Z,249.70
2023-04-28T06:35:56.152Z,250.00
2023-04-28T06:36:56.203Z,249.80
2023-04-28T06:37:56.101Z,249.98
2023-04-28T06:38:56.164Z,249.66
2023-04-28T06:39:56.168Z,250.00
2023-04-28T06:40:56.186Z,250.05
2023-04-28T06:41:56.187Z,249.58
2023-04-28T06:42:56.225Z,249.73
2023-04-28T06:43:56.235Z,249.85
2023-04-28T06:44:56.318Z,249.83
2023-04-28T06:45:56.353Z,248.89
2023-04-28T06:46:56.498Z,249.87
2023-04-28T06:47:56.515Z,250.00
2023-04-28T06:48:56.552Z,249.78
2023-04-28T06:49:56.570Z,247.93
2023-04-28T06:50:56.658Z,247.84
2023-04-28T06:51:56.658Z,247.50
2023-04-28T06:52:56.686Z,245.63
2023-04-28T06:53:56.713Z,246.74
2023-04-28T06:54:56.731Z,246.83
2023-04-28T06:55:56.791Z,247.76
2023-04-28T06:56:56.875Z,248.57
2023-04-28T06:57:56.845Z,248.55
2023-04-28T06:58:56.919Z,247.51
2023-04-28T06:59:56.944Z,245.36
2023-04-28T07:00:57.081Z,243.21
2023-04-28T07:01:57.143Z,243.71
2023-04-28T07:02:57.280Z,243.53
2023-04-28T07:03:57.396Z,243.08
2023-04-28T07:04:57.319Z,245.10
2023-04-28T07:05:57.316Z,244.34
2023-04-28T07:06:57.334Z,242.41
2023-04-28T07:07:57.398Z,244.27
2023-04-28T07:08:57.437Z,243.19
2023-04-28T07:09:57.504Z,243.56
2023-04-28T07:10:57.483Z,244.20
2023-04-28T07:11:57.526Z,244.96
2023-04-28T07:12:57.554Z,245.30
2023-04-28T07:13:57.559Z,245.48
2023-04-28T07:14:57.639Z,245.52
2023-04-28T07:15:57.687Z,246.00
2023-04-28T07:16:57.659Z,246.57
2023-04-28T07:17:57.714Z,245.08
2023-04-28T07:18:57.726Z,244.58
2023-04-28T07:19:57.769Z,244.08
2023-04-28T07:20:57.793Z,244.32
2023-04-28T07:21:57.792Z,242.46
2023-04-28T07:22:57.852Z,242.38
2023-04-28T07:23:57.859Z,240.93
2023-04-28T07:24:57.847Z,240.73
2023-04-28T07:25:57.915Z,240.08
2023-04-28T07:26:57.932Z,240.77
2023-04-28T07:27:57.935Z,240.98
2023-04-28T07:28:57.997Z,241.28
2023-04-28T07:29:58.254Z,239.65
2023-04-28T07:30:58.287Z,240.04
2023-04-28T07:31:58.055Z,240.17
2023-04-28T07:32:58.105Z,239.53
2023-04-28T07:33:58.088Z,236.15
2023-04-28T07:34:58.138Z,232.45
2023-04-28T07:35:58.157Z,236.54
2023-04-28T07:36:58.227Z,226.09
2023-04-28T07:37:58.263Z,226.88
2023-04-28T07:38:58.321Z,225.75
2023-04-28T07:39:58.434Z,223.93
2023-04-28T07:40:58.464Z,221.23
2023-04-28T07:41:58.565Z,218.64
2023-04-28T07:42:58.591Z,216.01
2023-04-28T07:43:58.645Z,214.57
2023-04-28T07:44:58.717Z,213.11
2023-04-28T07:45:58.805Z,212.88
2023-04-28T07:46:58.936Z,210.31
2023-04-28T07:47:58.831Z,209.47
2023-04-28T07:48:58.829Z,208.65
2023-04-28T07:49:59.204Z,207.90
2023-04-28T07:50:58.934Z,207.41
2023-04-28T07:51:59.026Z,207.74
2023-04-28T07:52:59.046Z,207.52
2023-04-28T07:53:59.092Z,205.20
2023-04-28T07:54:59.147Z,206.01
2023-04-28T07:55:59.095Z,205.07
2023-04-28T07:56:59.157Z,205.08
2023-04-28T07:57:59.119Z,202.75
2023-04-28T07:58:59.175Z,201.72
2023-04-28T07:59:59.178Z,200.53
2023-04-28T08:00:59.201Z,200.06
2023-04-28T08:01:59.213Z,199.99
2023-04-28T08:02:59.587Z,199.70
2023-04-28T08:03:59.452Z,199.50
2023-04-28T08:04:59.563Z,197.93
2023-04-28T08:05:59.420Z,198.78
2023-04-28T08:06:59.349Z,198.38
2023-04-28T08:07:59.433Z,198.21
2023-04-28T08:08:59.483Z,197.09
2023-04-28T08:09:59.694Z,196.48
2023-04-28T08:10:59.661Z,197.89
2023-04-28T08:11:59.676Z,198.01
2023-04-28T08:12:59.719Z,197.04
2023-04-28T08:13:59.740Z,196.60
2023-04-28T08:14:59.786Z,197.11
2023-04-28T08:15:59.878Z,195.37
2023-04-28T08:16:59.900Z,196.58
2023-04-28T08:17:59.971Z,196.51
2023-04-28T08:19:00.109Z,198.36
2023-04-28T08:19:59.919Z,199.24
2023-04-28T08:20:59.961Z,200.24
2023-04-28T08:22:00.053Z,199.96
2023-04-28T08:22:59.967Z,199.75
2023-04-28T08:24:00.113Z,200.64
2023-04-28T08:25:00.007Z,201.72
2023-04-28T08:25:59.962Z,203.93
2023-04-28T08:27:00.033Z,205.20
2023-04-28T08:28:00.043Z,199.92
2023-04-28T08:29:00.047Z,196.89
2023-04-28T08:30:00.036Z,192.61
2023-04-28T08:31:00.073Z,192.12
2023-04-28T08:32:00.064Z,189.46
2023-04-28T08:33:00.064Z,192.96
2023-04-28T08:34:00.030Z,188.18
2023-04-28T08:35:00.138Z,189.49
2023-04-28T08:36:00.063Z,188.69
2023-04-28T08:37:00.078Z,189.89
2023-04-28T08:38:00.200Z,194.88
2023-04-28T08:39:00.159Z,195.33
2023-04-28T08:40:00.213Z,193.10
2023-04-28T08:41:00.212Z,195.53
2023-04-28T08:42:00.221Z,192.08
2023-04-28T08:43:00.234Z,190.99
2023-04-28T08:44:00.293Z,193.48
2023-04-28T08:45:00.306Z,191.54
2023-04-28T08:46:00.334Z,189.11
2023-04-28T08:47:00.511Z,189.28
2023-04-28T08:48:00.493Z,188.57
2023-04-28T08:49:00.419Z,185.65
2023-04-28T08:50:00.490Z,182.05
2023-04-28T08:51:00.496Z,182.35
2023-04-28T08:52:00.702Z,181.67
2023-04-28T08:53:00.586Z,172.81
2023-04-28T08:55:00.569Z,169.75
2023-04-28T08:56:00.562Z,165.74
2023-04-28T08:57:00.515Z,170.43
2023-04-28T08:58:00.535Z,165.32
2023-04-28T08:59:00.497Z,167.26
2023-04-28T09:00:00.516Z,166.70
2023-04-28T09:01:00.472Z,165.04
2023-04-28T09:02:00.615Z,164.43
2023-04-28T09:03:00.681Z,162.31
2023-04-28T09:04:00.548Z,163.04
2023-04-28T09:05:00.693Z,160.07
2023-04-28T09:06:00.437Z,154.39
2023-04-28T09:07:00.459Z,159.22
2023-04-28T09:08:00.449Z,161.82
2023-04-28T09:09:00.477Z,156.76
2023-04-28T09:10:00.479Z,154.29
2023-04-28T09:11:00.459Z,154.24
2023-04-28T09:12:00.437Z,151.88
2023-04-28T09:13:00.447Z,150.51
2023-04-28T09:14:00.384Z,155.88
2023-04-28T09:15:00.409Z,154.54
2023-04-28T09:16:00.387Z,147.95
2023-04-28T09:17:00.417Z,147.16
2023-04-28T09:18:00.492Z,148.27
2023-04-28T09:19:00.356Z,149.76
2023-04-28T09:20:00.378Z,152.76
2023-04-28T09:21:01.858Z,151.75
2023-04-28T09:22:05.509Z,151.52
2023-04-28T09:23:01.418Z,151.69
2023-04-28T09:24:00.368Z,152.01
2023-04-28T09:25:00.330Z,152.06
2023-04-28T09:26:00.312Z,154.77
2023-04-28T09:27:00.332Z,156.49
2023-04-28T09:28:00.355Z,157.58
2023-04-28T09:29:00.297Z,155.78
2023-04-28T09:30:00.303Z,154.07
2023-04-28T09:31:00.327Z,153.43
2023-04-28T09:32:00.318Z,155.95
2023-04-28T09:33:00.319Z,156.38
2023-04-28T09:34:00.407Z,161.18
2023-04-28T09:35:00.295Z,165.26
2023-04-28T09:36:00.236Z,157.36
2023-04-28T09:37:00.263Z,160.96
2023-04-28T09:38:00.260Z,162.27
2023-04-28T09:39:00.325Z,167.71
2023-04-28T09:40:00.369Z,171.14
2023-04-28T09:41:00.507Z,173.12
2023-04-28T09:42:00.404Z,175.35
2023-04-28T09:43:06.328Z,173.71
2023-04-28T09:44:01.355Z,173.85
2023-04-28T09:45:00.427Z,173.95
2023-04-28T09:46:00.438Z,174.07
2023-04-28T09:47:00.363Z,174.83
2023-04-28T09:48:00.382Z,174.34
2023-04-28T09:49:00.373Z,177.75
2023-04-28T09:50:00.367Z,180.31
2023-04-28T09:51:00.348Z,182.52
2023-04-28T09:52:00.341Z,182.37
2023-04-28T09:53:00.297Z,181.79
2023-04-28T09:54:00.302Z,181.34
2023-04-28T09:55:00.324Z,178.57
2023-04-28T09:56:00.278Z,177.50
2023-04-28T09:57:00.291Z,179.89
2023-04-28T09:58:00.296Z,173.61
2023-04-28T09:59:00.267Z,175.45
2023-04-28T10:00:00.327Z,173.32
2023-04-28T10:01:00.334Z,173.05
2023-04-28T10:02:04.687Z,174.82
2023-04-28T10:03:01.443Z,174.94
2023-04-28T10:04:00.339Z,175.18
2023-04-28T10:05:00.573Z,176.10
2023-04-28T10:06:00.317Z,178.02
2023-04-28T10:07:00.192Z,179.62
2023-04-28T10:08:00.210Z,177.35
2023-04-28T10:09:00.564Z,174.47
2023-04-28T10:10:00.169Z,175.66
2023-04-28T10:11:00.186Z,177.90
2023-04-28T10:12:00.185Z,177.28
2023-04-28T10:13:00.150Z,173.20
2023-04-28T10:14:00.196Z,177.09
2023-04-28T10:15:00.198Z,179.04
2023-04-28T10:16:00.206Z,181.01
2023-04-28T10:17:00.161Z,183.05
2023-04-28T10:18:00.190Z,183.84
2023-04-28T10:19:00.128Z,182.68
2023-04-28T10:20:00.106Z,189.18
2023-04-28T10:21:00.112Z,192.08
2023-04-28T10:22:00.147Z,192.53
2023-04-28T10:23:00.135Z,206.13
2023-04-28T10:24:00.122Z,203.40
2023-04-28T10:25:00.148Z,202.53
2023-04-28T10:26:00.079Z,199.37
2023-04-28T10:27:00.108Z,198.16
2023-04-28T10:28:00.116Z,197.56
2023-04-28T10:29:00.035Z,195.13
2023-04-28T10:30:00.069Z,195.26
2023-04-28T10:31:00.095Z,196.28
2023-04-28T10:32:00.025Z,199.67
2023-04-28T10:33:00.092Z,197.94
2023-04-28T10:34:00.034Z,194.41
2023-04-28T10:35:00.755Z,197.21
2023-04-28T10:36:00.049Z,198.62
2023-04-28T10:37:00.259Z,194.00
2023-04-28T10:37:59.993Z,190.59
2023-04-28T10:38:59.995Z,190.80
2023-04-28T10:40:00.275Z,190.78
2023-04-28T10:41:00.021Z,194.13
2023-04-28T10:41:59.948Z,192.24
2023-04-28T10:42:59.981Z,194.19
2023-04-28T10:43:59.931Z,189.61
2023-04-28T10:44:59.926Z,191.66
2023-04-28T10:45:59.994Z,196.06
2023-04-28T10:47:00.146Z,195.53
2023-04-28T10:48:00.158Z,195.92
2023-04-28T10:48:59.964Z,197.59
2023-04-28T10:49:59.982Z,198.76
2023-04-28T10:50:59.974Z,196.09
2023-04-28T10:51:59.979Z,195.41
2023-04-28T10:52:59.966Z,191.16
2023-04-28T10:53:59.956Z,192.76
2023-04-28T10:55:03.142Z,193.01
2023-04-28T10:56:00.987Z,193.21
2023-04-28T10:56:59.987Z,193.91
2023-04-28T10:57:59.948Z,196.16
2023-04-28T10:58:59.964Z,200.00
2023-04-28T10:59:59.958Z,204.52
2023-04-28T11:00:59.944Z,206.41
2023-04-28T11:01:59.972Z,207.93
2023-04-28T11:03:00.029Z,204.50
2023-04-28T11:04:00.156Z,205.34
2023-04-28T11:05:00.367Z,209.93
2023-04-28T11:05:59.880Z,211.31
2023-04-28T11:06:59.877Z,211.21
2023-04-28T11:08:01.019Z,216.79
2023-04-28T11:08:59.850Z,222.25
2023-04-28T11:09:59.865Z,211.76
2023-04-28T11:10:59.827Z,209.96
2023-04-28T11:11:59.929Z,206.58
2023-04-28T11:12:59.846Z,213.37
2023-04-28T11:13:59.815Z,212.09
2023-04-28T11:14:59.924Z,212.78
2023-04-28T11:15:59.889Z,210.73
2023-04-28T11:16:59.803Z,212.09
2023-04-28T11:18:00.341Z,218.43
2023-04-28T11:18:59.820Z,217.66
2023-04-28T11:19:59.775Z,211.40
2023-04-28T11:20:59.764Z,211.86
2023-04-28T11:21:59.804Z,206.11
2023-04-28T11:22:59.827Z,202.47
2023-04-28T11:23:59.814Z,204.24
2023-04-28T11:24:59.835Z,202.18
2023-04-28T11:25:59.716Z,202.25
2023-04-28T11:26:59.734Z,198.71
2023-04-28T11:27:59.789Z,195.53
2023-04-28T11:28:59.789Z,197.78
2023-04-28T11:29:59.803Z,199.33
2023-04-28T11:30:59.841Z,196.32
2023-04-28T11:31:59.901Z,192.99
2023-04-28T11:32:59.901Z,192.54
2023-04-28T11:33:59.893Z,195.02
2023-04-28T11:34:59.850Z,186.74
2023-04-28T11:35:59.865Z,185.25
2023-04-28T11:36:59.854Z,185.36
2023-04-28T11:37:59.873Z,187.23
2023-04-28T11:39:00.028Z,185.00
2023-04-28T11:39:59.878Z,183.17
2023-04-28T11:40:59.962Z,184.89
2023-04-28T11:41:59.986Z,176.81
2023-04-28T11:43:00.675Z,176.16
2023-04-28T11:43:59.994Z,174.21
2023-04-28T11:44:59.998Z,178.39
2023-04-28T11:46:00.041Z,171.28
2023-04-28T11:47:00.075Z,171.76
2023-04-28T11:48:00.047Z,169.27
2023-04-28T11:49:00.022Z,166.78
2023-04-28T11:50:00.041Z,165.80
2023-04-28T11:51:00.030Z,170.78
2023-04-28T11:52:00.184Z,172.29
2023-04-28T11:53:00.154Z,175.85
2023-04-28T11:54:00.147Z,173.70
2023-04-28T11:55:00.414Z,167.68
2023-04-28T11:56:00.178Z,163.75
2023-04-28T11:57:00.178Z,161.44
2023-04-28T11:58:00.202Z,168.41
2023-04-28T11:59:01.227Z,171.28
2023-04-28T12:00:00.213Z,171.57
2023-04-28T12:01:00.214Z,172.22
2023-04-28T12:02:00.266Z,171.92
2023-04-28T12:03:00.333Z,172.26
2023-04-28T12:04:00.354Z,167.67
2023-04-28T12:05:00.352Z,174.22
2023-04-28T12:06:00.390Z,173.24
2023-04-28T12:07:00.365Z,174.27
2023-04-28T12:08:00.354Z,171.83
2023-04-28T12:09:00.359Z,174.29
2023-04-28T12:10:00.369Z,175.64
2023-04-28T12:11:00.441Z,172.49
2023-04-28T12:12:00.383Z,172.24
2023-04-28T12:13:00.398Z,170.75
2023-04-28T12:14:00.397Z,169.57
2023-04-28T12:15:00.457Z,168.03
2023-04-28T12:16:00.534Z,171.85
2023-04-28T12:17:00.460Z,170.95
2023-04-28T12:18:00.502Z,171.21
2023-04-28T12:19:00.471Z,171.24
2023-04-28T12:20:00.484Z,168.18
2023-04-28T12:21:00.512Z,168.36
2023-04-28T12:22:00.483Z,167.49
2023-04-28T12:23:00.488Z,169.70
2023-04-28T12:24:00.516Z,170.52
2023-04-28T12:25:00.521Z,171.60
2023-04-28T12:26:00.526Z,172.19
2023-04-28T12:27:00.526Z,173.78
2023-04-28T12:28:00.561Z,171.87
2023-04-28T12:29:00.566Z,172.42
2023-04-28T12:30:00.530Z,171.26